sensor_id;sensor_type;location;lat;lon;timestamp;temperature;humidity
59075;DHT22;44860;53.020;6.738;2023-04-06T00:00:31;3.20;99.90
59075;DHT22;44860;53.020;6.738;2023-04-06T00:02:57;3.30;99.90
59075;DHT22;44860;53.020;6.738;2023-04-06T00:05:22;3.30;99.90
59075;DHT22;44860;53.020;6.738;2023-04-06T00:07:48;3.20;99.90
59075;DHT22;44860;53.020;6.738;2023-04-06T00:10:16;3.20;99.90
59075;DHT22;44860;53.020;6.738;2023-04-06T00:12:43;3.20;99.90
59075;DHT22;44860;53.020;6.738;2023-04-06T00:15:09;3.20;99.90
59075;DHT22;44860;53.020;6.738;2023-04-06T00:17:35;3.20;99.90
59075;DHT22;44860;53.020;6.738;2023-04-06T00:20:01;3.20;99.90
59075;DHT22;44860;53.020;6.738;2023-04-06T00:22:26;3.20;99.90
59075;DHT22;44860;53.020;6.738;2023-04-06T00:24:52;3.20;99.90
59075;DHT22;44860;53.020;6.738;2023-04-06T00:27:18;3.20;99.90
59075;DHT22;44860;53.020;6.738;2023-04-06T00:29:44;3.20;99.90
59075;DHT22;44860;53.020;6.738;2023-04-06T00:32:10;3.20;99.90
59075;DHT22;44860;53.020;6.738;2023-04-06T00:34:36;3.20;99.90
59075;DHT22;44860;53.020;6.738;2023-04-06T00:37:01;3.10;99.90
59075;DHT22;44860;53.020;6.738;2023-04-06T00:39:27;3.10;99.90
59075;DHT22;44860;53.020;6.738;2023-04-06T00:41:53;3.10;99.90
59075;DHT22;44860;53.020;6.738;2023-04-06T00:44:20;3.10;99.90
59075;DHT22;44860;53.020;6.738;2023-04-06T00:46:47;3.00;99.90
59075;DHT22;44860;53.020;6.738;2023-04-06T00:49:12;3.00;99.90
59075;DHT22;44860;53.020;6.738;2023-04-06T00:51:38;2.90;99.90
59075;DHT22;44860;53.020;6.738;2023-04-06T00:54:04;2.80;99.90
59075;DHT22;44860;53.020;6.738;2023-04-06T00:56:30;2.80;99.90
59075;DHT22;44860;53.020;6.738;2023-04-06T00:58:56;2.70;99.90
59075;DHT22;44860;53.020;6.738;2023-04-06T01:01:23;2.70;99.90
59075;DHT22;44860;53.020;6.738;2023-04-06T01:03:49;2.60;99.90
59075;DHT22;44860;53.020;6.738;2023-04-06T01:06:15;2.50;99.90
59075;DHT22;44860;53.020;6.738;2023-04-06T01:08:41;2.50;99.90
59075;DHT22;44860;53.020;6.738;2023-04-06T01:11:07;2.40;99.90
59075;DHT22;44860;53.020;6.738;2023-04-06T01:13:33;2.30;99.90
59075;DHT22;44860;53.020;6.738;2023-04-06T01:15:58;2.20;99.90
59075;DHT22;44860;53.020;6.738;2023-04-06T01:18:28;2.20;99.90
59075;DHT22;44860;53.020;6.738;2023-04-06T01:20:55;2.10;99.90
59075;DHT22;44860;53.020;6.738;2023-04-06T01:23:21;2.00;99.90
59075;DHT22;44860;53.020;6.738;2023-04-06T01:25:46;2.00;99.90
59075;DHT22;44860;53.020;6.738;2023-04-06T01:28:12;2.00;99.90
59075;DHT22;44860;53.020;6.738;2023-04-06T01:30:38;2.00;99.90
59075;DHT22;44860;53.020;6.738;2023-04-06T01:33:03;1.90;99.90
59075;DHT22;44860;53.020;6.738;2023-04-06T01:35:30;1.90;99.90
59075;DHT22;44860;53.020;6.738;2023-04-06T01:37:56;1.80;99.90
59075;DHT22;44860;53.020;6.738;2023-04-06T01:40:21;1.80;99.90
59075;DHT22;44860;53.020;6.738;2023-04-06T01:42:47;1.80;99.90
59075;DHT22;44860;53.020;6.738;2023-04-06T01:45:13;1.80;99.90
59075;DHT22;44860;53.020;6.738;2023-04-06T01:47:38;1.70;99.90
59075;DHT22;44860;53.020;6.738;2023-04-06T01:50:04;1.70;99.90
59075;DHT22;44860;53.020;6.738;2023-04-06T01:52:32;1.80;99.90
59075;DHT22;44860;53.020;6.738;2023-04-06T01:54:59;1.70;99.90
59075;DHT22;44860;53.020;6.738;2023-04-06T01:57:25;1.70;99.90
59075;DHT22;44860;53.020;6.738;2023-04-06T01:59:51;1.60;99.90
59075;DHT22;44860;53.020;6.738;2023-04-06T02:02:17;1.60;99.90
59075;DHT22;44860;53.020;6.738;2023-04-06T02:04:43;1.50;99.90
59075;DHT22;44860;53.020;6.738;2023-04-06T02:07:08;1.40;99.90
59075;DHT22;44860;53.020;6.738;2023-04-06T02:09:36;1.40;99.90
59075;DHT22;44860;53.020;6.738;2023-04-06T02:12:01;1.30;99.90
59075;DHT22;44860;53.020;6.738;2023-04-06T02:14:27;1.30;99.90
59075;DHT22;44860;53.020;6.738;2023-04-06T02:16:53;1.20;99.90
59075;DHT22;44860;53.020;6.738;2023-04-06T02:19:19;1.20;99.90
59075;DHT22;44860;53.020;6.738;2023-04-06T02:21:44;1.20;99.90
59075;DHT22;44860;53.020;6.738;2023-04-06T02:24:10;1.20;99.90
59075;DHT22;44860;53.020;6.738;2023-04-06T02:26:36;1.20;99.90
59075;DHT22;44860;53.020;6.738;2023-04-06T02:29:02;1.20;99.90
59075;DHT22;44860;53.020;6.738;2023-04-06T02:31:28;1.20;99.90
59075;DHT22;44860;53.020;6.738;2023-04-06T02:33:53;1.20;99.90
59075;DHT22;44860;53.020;6.738;2023-04-06T02:36:19;1.20;99.90
59075;DHT22;44860;53.020;6.738;2023-04-06T02:38:45;1.20;99.90
59075;DHT22;44860;53.020;6.738;2023-04-06T02:41:11;1.20;99.90
59075;DHT22;44860;53.020;6.738;2023-04-06T02:43:37;1.20;99.90
59075;DHT22;44860;53.020;6.738;2023-04-06T02:46:02;1.20;99.90
59075;DHT22;44860;53.020;6.738;2023-04-06T02:48:28;1.20;99.90
59075;DHT22;44860;53.020;6.738;2023-04-06T02:50:53;1.20;99.90
59075;DHT22;44860;53.020;6.738;2023-04-06T02:53:19;1.20;99.90
59075;DHT22;44860;53.020;6.738;2023-04-06T02:55:45;1.30;99.90
59075;DHT22;44860;53.020;6.738;2023-04-06T02:58:11;1.20;99.90
59075;DHT22;44860;53.020;6.738;2023-04-06T03:00:37;1.20;99.90
59075;DHT22;44860;53.020;6.738;2023-04-06T03:03:03;1.20;99.90
59075;DHT22;44860;53.020;6.738;2023-04-06T03:05:28;1.20;99.90
59075;DHT22;44860;53.020;6.738;2023-04-06T03:07:54;1.20;99.90
59075;DHT22;44860;53.020;6.738;2023-04-06T03:10:20;1.20;99.90
59075;DHT22;44860;53.020;6.738;2023-04-06T03:12:45;1.20;99.90
59075;DHT22;44860;53.020;6.738;2023-04-06T03:15:11;1.20;99.90
59075;DHT22;44860;53.020;6.738;2023-04-06T03:17:37;1.20;99.90
59075;DHT22;44860;53.020;6.738;2023-04-06T03:20:03;1.20;99.90
59075;DHT22;44860;53.020;6.738;2023-04-06T03:22:29;1.20;99.90
59075;DHT22;44860;53.020;6.738;2023-04-06T03:24:55;1.20;99.90
59075;DHT22;44860;53.020;6.738;2023-04-06T03:27:20;1.20;99.90
59075;DHT22;44860;53.020;6.738;2023-04-06T03:29:46;1.20;99.90
59075;DHT22;44860;53.020;6.738;2023-04-06T03:32:12;1.20;99.90
59075;DHT22;44860;53.020;6.738;2023-04-06T03:34:38;1.20;99.90
59075;DHT22;44860;53.020;6.738;2023-04-06T03:37:04;1.30;99.90
59075;DHT22;44860;53.020;6.738;2023-04-06T03:39:30;1.30;99.90
59075;DHT22;44860;53.020;6.738;2023-04-06T03:41:56;1.30;99.90
59075;DHT22;44860;53.020;6.738;2023-04-06T03:44:21;1.20;99.90
59075;DHT22;44860;53.020;6.738;2023-04-06T03:46:47;1.20;99.90
59075;DHT22;44860;53.020;6.738;2023-04-06T03:49:12;1.20;99.90
59075;DHT22;44860;53.020;6.738;2023-04-06T03:51:38;1.10;99.90
59075;DHT22;44860;53.020;6.738;2023-04-06T03:54:04;1.10;99.90
59075;DHT22;44860;53.020;6.738;2023-04-06T03:56:30;1.10;99.90
59075;DHT22;44860;53.020;6.738;2023-04-06T03:58:55;1.10;99.90
59075;DHT22;44860;53.020;6.738;2023-04-06T04:01:21;1.10;99.90
59075;DHT22;44860;53.020;6.738;2023-04-06T04:03:47;1.00;99.90
59075;DHT22;44860;53.020;6.738;2023-04-06T04:06:13;1.00;99.90
59075;DHT22;44860;53.020;6.738;2023-04-06T04:08:38;1.00;99.90
59075;DHT22;44860;53.020;6.738;2023-04-06T04:11:04;1.00;99.90
59075;DHT22;44860;53.020;6.738;2023-04-06T04:13:30;1.00;99.90
59075;DHT22;44860;53.020;6.738;2023-04-06T04:15:55;1.00;99.90
59075;DHT22;44860;53.020;6.738;2023-04-06T04:18:21;1.00;99.90
59075;DHT22;44860;53.020;6.738;2023-04-06T04:20:47;1.00;99.90
59075;DHT22;44860;53.020;6.738;2023-04-06T04:23:13;1.00;99.90
59075;DHT22;44860;53.020;6.738;2023-04-06T04:25:38;1.00;99.90
59075;DHT22;44860;53.020;6.738;2023-04-06T04:28:04;1.00;99.90
59075;DHT22;44860;53.020;6.738;2023-04-06T04:30:30;1.00;99.90
59075;DHT22;44860;53.020;6.738;2023-04-06T04:32:56;1.00;99.90
59075;DHT22;44860;53.020;6.738;2023-04-06T04:35:21;1.00;99.90
59075;DHT22;44860;53.020;6.738;2023-04-06T04:37:47;1.00;99.90
59075;DHT22;44860;53.020;6.738;2023-04-06T04:40:13;0.90;99.90
59075;DHT22;44860;53.020;6.738;2023-04-06T04:42:39;1.00;99.90
59075;DHT22;44860;53.020;6.738;2023-04-06T04:45:04;1.00;99.90
59075;DHT22;44860;53.020;6.738;2023-04-06T04:47:30;1.00;99.90
59075;DHT22;44860;53.020;6.738;2023-04-06T04:49:56;1.00;99.90
59075;DHT22;44860;53.020;6.738;2023-04-06T04:52:21;1.00;99.90
59075;DHT22;44860;53.020;6.738;2023-04-06T04:54:47;1.00;99.90
59075;DHT22;44860;53.020;6.738;2023-04-06T04:57:13;1.00;99.90
59075;DHT22;44860;53.020;6.738;2023-04-06T04:59:38;1.00;99.90
59075;DHT22;44860;53.020;6.738;2023-04-06T05:02:04;1.00;99.90
59075;DHT22;44860;53.020;6.738;2023-04-06T05:04:30;1.00;99.90
59075;DHT22;44860;53.020;6.738;2023-04-06T05:07:06;1.00;99.90
59075;DHT22;44860;53.020;6.738;2023-04-06T05:09:32;1.00;99.90
59075;DHT22;44860;53.020;6.738;2023-04-06T05:11:59;1.00;99.90
59075;DHT22;44860;53.020;6.738;2023-04-06T05:14:26;1.00;99.90
59075;DHT22;44860;53.020;6.738;2023-04-06T05:16:52;1.00;99.90
59075;DHT22;44860;53.020;6.738;2023-04-06T05:19:17;1.00;99.90
59075;DHT22;44860;53.020;6.738;2023-04-06T05:21:43;1.00;99.90
59075;DHT22;44860;53.020;6.738;2023-04-06T05:24:09;1.00;99.90
59075;DHT22;44860;53.020;6.738;2023-04-06T05:26:35;1.00;99.90
59075;DHT22;44860;53.020;6.738;2023-04-06T05:29:01;1.00;99.90
59075;DHT22;44860;53.020;6.738;2023-04-06T05:31:26;1.00;99.90
59075;DHT22;44860;53.020;6.738;2023-04-06T05:33:56;0.90;99.90
59075;DHT22;44860;53.020;6.738;2023-04-06T05:36:22;0.90;99.90
59075;DHT22;44860;53.020;6.738;2023-04-06T05:38:47;0.90;99.90
59075;DHT22;44860;53.020;6.738;2023-04-06T05:41:13;1.00;99.90
59075;DHT22;44860;53.020;6.738;2023-04-06T05:43:39;1.00;99.90
59075;DHT22;44860;53.020;6.738;2023-04-06T05:46:04;1.00;99.90
59075;DHT22;44860;53.020;6.738;2023-04-06T05:48:30;1.00;99.90
59075;DHT22;44860;53.020;6.738;2023-04-06T05:50:56;1.10;99.90
59075;DHT22;44860;53.020;6.738;2023-04-06T05:53:21;1.10;99.90
59075;DHT22;44860;53.020;6.738;2023-04-06T05:55:47;1.10;99.90
59075;DHT22;44860;53.020;6.738;2023-04-06T05:58:13;1.10;99.90
59075;DHT22;44860;53.020;6.738;2023-04-06T06:00:38;1.20;99.90
59075;DHT22;44860;53.020;6.738;2023-04-06T06:03:04;1.20;99.90
59075;DHT22;44860;53.020;6.738;2023-04-06T06:05:31;1.20;99.90
59075;DHT22;44860;53.020;6.738;2023-04-06T06:07:57;1.30;99.90
59075;DHT22;44860;53.020;6.738;2023-04-06T06:10:22;1.30;99.90
59075;DHT22;44860;53.020;6.738;2023-04-06T06:12:48;1.30;99.90
59075;DHT22;44860;53.020;6.738;2023-04-06T06:15:14;1.40;99.90
59075;DHT22;44860;53.020;6.738;2023-04-06T06:17:39;1.40;99.90
59075;DHT22;44860;53.020;6.738;2023-04-06T06:20:09;1.40;99.90
59075;DHT22;44860;53.020;6.738;2023-04-06T06:22:34;1.50;99.90
59075;DHT22;44860;53.020;6.738;2023-04-06T06:25:00;1.60;99.90
59075;DHT22;44860;53.020;6.738;2023-04-06T06:27:26;1.60;99.90
59075;DHT22;44860;53.020;6.738;2023-04-06T06:29:51;1.60;99.90
59075;DHT22;44860;53.020;6.738;2023-04-06T06:32:17;1.70;99.90
59075;DHT22;44860;53.020;6.738;2023-04-06T06:34:43;1.70;99.90
59075;DHT22;44860;53.020;6.738;2023-04-06T06:37:09;1.80;99.90
59075;DHT22;44860;53.020;6.738;2023-04-06T06:39:34;1.90;99.90
59075;DHT22;44860;53.020;6.738;2023-04-06T06:42:00;1.90;99.90
59075;DHT22;44860;53.020;6.738;2023-04-06T06:44:27;2.00;99.90
59075;DHT22;44860;53.020;6.738;2023-04-06T06:46:53;2.10;99.90
59075;DHT22;44860;53.020;6.738;2023-04-06T06:49:19;2.20;99.90
59075;DHT22;44860;53.020;6.738;2023-04-06T06:51:45;2.20;99.90
59075;DHT22;44860;53.020;6.738;2023-04-06T06:54:12;2.30;99.90
59075;DHT22;44860;53.020;6.738;2023-04-06T06:56:38;2.40;99.90
59075;DHT22;44860;53.020;6.738;2023-04-06T06:59:05;2.50;99.90
59075;DHT22;44860;53.020;6.738;2023-04-06T07:01:34;2.50;99.90
59075;DHT22;44860;53.020;6.738;2023-04-06T07:04:00;2.60;99.90
59075;DHT22;44860;53.020;6.738;2023-04-06T07:06:26;2.70;99.90
59075;DHT22;44860;53.020;6.738;2023-04-06T07:08:51;2.70;99.90
59075;DHT22;44860;53.020;6.738;2023-04-06T07:11:17;2.80;99.90
59075;DHT22;44860;53.020;6.738;2023-04-06T07:13:43;2.90;99.90
59075;DHT22;44860;53.020;6.738;2023-04-06T07:16:09;3.00;99.90
59075;DHT22;44860;53.020;6.738;2023-04-06T07:18:34;3.10;99.90
59075;DHT22;44860;53.020;6.738;2023-04-06T07:21:00;3.20;99.90
59075;DHT22;44860;53.020;6.738;2023-04-06T07:23:26;3.30;99.90
59075;DHT22;44860;53.020;6.738;2023-04-06T07:25:51;3.30;99.90
59075;DHT22;44860;53.020;6.738;2023-04-06T07:28:19;3.40;99.90
59075;DHT22;44860;53.020;6.738;2023-04-06T07:30:44;3.50;99.90
59075;DHT22;44860;53.020;6.738;2023-04-06T07:33:10;3.60;99.90
59075;DHT22;44860;53.020;6.738;2023-04-06T07:35:36;3.70;99.90
59075;DHT22;44860;53.020;6.738;2023-04-06T07:38:02;3.80;99.90
59075;DHT22;44860;53.020;6.738;2023-04-06T07:40:28;3.90;99.90
59075;DHT22;44860;53.020;6.738;2023-04-06T07:42:54;4.00;99.90
59075;DHT22;44860;53.020;6.738;2023-04-06T07:45:20;4.10;99.90
59075;DHT22;44860;53.020;6.738;2023-04-06T07:47:45;4.20;99.90
59075;DHT22;44860;53.020;6.738;2023-04-06T07:50:12;4.30;99.90
59075;DHT22;44860;53.020;6.738;2023-04-06T07:52:38;4.40;99.90
59075;DHT22;44860;53.020;6.738;2023-04-06T07:55:04;4.50;99.90
59075;DHT22;44860;53.020;6.738;2023-04-06T07:57:30;4.60;99.90
59075;DHT22;44860;53.020;6.738;2023-04-06T07:59:56;4.70;99.90
59075;DHT22;44860;53.020;6.738;2023-04-06T08:02:21;4.80;99.90
59075;DHT22;44860;53.020;6.738;2023-04-06T08:04:47;4.90;99.90
59075;DHT22;44860;53.020;6.738;2023-04-06T08:07:13;5.00;99.90
59075;DHT22;44860;53.020;6.738;2023-04-06T08:09:39;5.10;99.90
59075;DHT22;44860;53.020;6.738;2023-04-06T08:12:05;5.20;99.90
59075;DHT22;44860;53.020;6.738;2023-04-06T08:14:30;5.30;99.90
59075;DHT22;44860;53.020;6.738;2023-04-06T08:16:56;5.50;99.90
59075;DHT22;44860;53.020;6.738;2023-04-06T08:19:22;5.60;99.90
59075;DHT22;44860;53.020;6.738;2023-04-06T08:21:47;5.70;99.90
59075;DHT22;44860;53.020;6.738;2023-04-06T08:24:14;5.80;99.90
59075;DHT22;44860;53.020;6.738;2023-04-06T08:26:40;6.00;99.90
59075;DHT22;44860;53.020;6.738;2023-04-06T08:29:06;6.10;99.90
59075;DHT22;44860;53.020;6.738;2023-04-06T08:31:33;6.20;99.90
59075;DHT22;44860;53.020;6.738;2023-04-06T08:34:00;6.30;99.90
59075;DHT22;44860;53.020;6.738;2023-04-06T08:36:25;6.40;99.90
59075;DHT22;44860;53.020;6.738;2023-04-06T08:38:51;6.50;99.90
59075;DHT22;44860;53.020;6.738;2023-04-06T08:41:17;6.60;99.90
59075;DHT22;44860;53.020;6.738;2023-04-06T08:43:47;6.80;99.90
59075;DHT22;44860;53.020;6.738;2023-04-06T08:46:14;6.80;99.90
59075;DHT22;44860;53.020;6.738;2023-04-06T08:48:41;7.00;99.90
59075;DHT22;44860;53.020;6.738;2023-04-06T08:51:11;7.20;99.90
59075;DHT22;44860;53.020;6.738;2023-04-06T08:53:37;7.30;99.90
59075;DHT22;44860;53.020;6.738;2023-04-06T08:56:04;7.40;99.90
59075;DHT22;44860;53.020;6.738;2023-04-06T08:58:35;7.50;99.90
59075;DHT22;44860;53.020;6.738;2023-04-06T09:01:07;7.60;99.90
59075;DHT22;44860;53.020;6.738;2023-04-06T09:03:37;7.80;99.90
59075;DHT22;44860;53.020;6.738;2023-04-06T09:06:04;7.80;99.90
59075;DHT22;44860;53.020;6.738;2023-04-06T09:08:30;7.90;99.90
59075;DHT22;44860;53.020;6.738;2023-04-06T09:10:56;8.10;99.90
59075;DHT22;44860;53.020;6.738;2023-04-06T09:13:21;8.20;99.90
59075;DHT22;44860;53.020;6.738;2023-04-06T09:15:58;8.30;99.90
59075;DHT22;44860;53.020;6.738;2023-04-06T09:18:30;8.50;99.60
59075;DHT22;44860;53.020;6.738;2023-04-06T09:21:06;8.60;99.00
59075;DHT22;44860;53.020;6.738;2023-04-06T09:23:33;8.70;98.20
59075;DHT22;44860;53.020;6.738;2023-04-06T09:29:04;8.90;97.90
59075;DHT22;44860;53.020;6.738;2023-04-06T09:31:31;9.10;98.10
59075;DHT22;44860;53.020;6.738;2023-04-06T09:34:00;9.20;97.00
59075;DHT22;44860;53.020;6.738;2023-04-06T09:36:30;9.30;96.50
59075;DHT22;44860;53.020;6.738;2023-04-06T09:38:59;9.40;95.80
59075;DHT22;44860;53.020;6.738;2023-04-06T09:41:35;9.60;95.50
59075;DHT22;44860;53.020;6.738;2023-04-06T09:44:07;9.60;93.70
59075;DHT22;44860;53.020;6.738;2023-04-06T09:46:35;9.70;92.70
59075;DHT22;44860;53.020;6.738;2023-04-06T09:49:05;9.80;92.20
59075;DHT22;44860;53.020;6.738;2023-04-06T09:51:35;9.90;92.00
59075;DHT22;44860;53.020;6.738;2023-04-06T09:54:02;9.90;91.80
59075;DHT22;44860;53.020;6.738;2023-04-06T10:01:53;10.00;91.10
59075;DHT22;44860;53.020;6.738;2023-04-06T10:04:47;10.10;90.60
59075;DHT22;44860;53.020;6.738;2023-04-06T10:07:16;10.20;86.40
59075;DHT22;44860;53.020;6.738;2023-04-06T10:09:45;10.30;86.40
59075;DHT22;44860;53.020;6.738;2023-04-06T10:12:12;10.40;82.90
59075;DHT22;44860;53.020;6.738;2023-04-06T10:14:39;10.40;81.80
59075;DHT22;44860;53.020;6.738;2023-04-06T10:17:06;10.40;79.60
59075;DHT22;44860;53.020;6.738;2023-04-06T10:22:14;10.50;70.90
59075;DHT22;44860;53.020;6.738;2023-04-06T10:24:43;10.60;66.90
59075;DHT22;44860;53.020;6.738;2023-04-06T10:27:09;10.70;65.00
59075;DHT22;44860;53.020;6.738;2023-04-06T10:29:47;10.80;65.70
59075;DHT22;44860;53.020;6.738;2023-04-06T10:32:14;10.90;64.70
59075;DHT22;44860;53.020;6.738;2023-04-06T10:34:40;10.90;61.80
59075;DHT22;44860;53.020;6.738;2023-04-06T10:37:15;11.10;61.60
59075;DHT22;44860;53.020;6.738;2023-04-06T10:39:53;11.10;60.90
59075;DHT22;44860;53.020;6.738;2023-04-06T10:42:24;11.20;60.70
59075;DHT22;44860;53.020;6.738;2023-04-06T10:44:50;11.30;59.80
59075;DHT22;44860;53.020;6.738;2023-04-06T10:47:17;11.30;56.00
59075;DHT22;44860;53.020;6.738;2023-04-06T10:49:43;11.40;55.90
59075;DHT22;44860;53.020;6.738;2023-04-06T10:52:09;11.40;56.70
59075;DHT22;44860;53.020;6.738;2023-04-06T10:54:41;11.50;58.40
59075;DHT22;44860;53.020;6.738;2023-04-06T10:57:08;11.60;55.60
59075;DHT22;44860;53.020;6.738;2023-04-06T10:59:33;11.60;54.70
59075;DHT22;44860;53.020;6.738;2023-04-06T11:01:59;11.70;53.40
59075;DHT22;44860;53.020;6.738;2023-04-06T11:04:25;11.70;55.00
59075;DHT22;44860;53.020;6.738;2023-04-06T11:06:50;11.70;56.50
59075;DHT22;44860;53.020;6.738;2023-04-06T11:09:29;11.70;55.60
59075;DHT22;44860;53.020;6.738;2023-04-06T11:11:56;11.80;55.50
59075;DHT22;44860;53.020;6.738;2023-04-06T11:14:22;11.90;56.40
59075;DHT22;44860;53.020;6.738;2023-04-06T11:16:48;12.00;56.70
59075;DHT22;44860;53.020;6.738;2023-04-06T11:19:17;12.20;57.40
59075;DHT22;44860;53.020;6.738;2023-04-06T11:21:47;12.30;57.90
59075;DHT22;44860;53.020;6.738;2023-04-06T11:24:23;12.40;56.20
59075;DHT22;44860;53.020;6.738;2023-04-06T11:26:53;12.40;56.00
59075;DHT22;44860;53.020;6.738;2023-04-06T11:29:21;12.40;55.30
59075;DHT22;44860;53.020;6.738;2023-04-06T11:31:50;12.50;53.80
59075;DHT22;44860;53.020;6.738;2023-04-06T11:34:20;12.50;52.30
59075;DHT22;44860;53.020;6.738;2023-04-06T11:36:48;12.50;52.30
59075;DHT22;44860;53.020;6.738;2023-04-06T11:39:19;12.50;48.80
59075;DHT22;44860;53.020;6.738;2023-04-06T11:41:49;12.50;48.60
59075;DHT22;44860;53.020;6.738;2023-04-06T11:44:15;12.40;48.20
59075;DHT22;44860;53.020;6.738;2023-04-06T11:46:51;12.50;49.20
59075;DHT22;44860;53.020;6.738;2023-04-06T11:49:17;12.60;46.80
59075;DHT22;44860;53.020;6.738;2023-04-06T11:51:42;12.60;46.80
59075;DHT22;44860;53.020;6.738;2023-04-06T11:54:08;12.70;47.70
59075;DHT22;44860;53.020;6.738;2023-04-06T11:56:34;12.70;47.20
59075;DHT22;44860;53.020;6.738;2023-04-06T11:58:59;12.70;47.30
59075;DHT22;44860;53.020;6.738;2023-04-06T12:01:26;12.80;48.80
59075;DHT22;44860;53.020;6.738;2023-04-06T12:03:55;12.80;48.90
59075;DHT22;44860;53.020;6.738;2023-04-06T12:06:20;12.80;47.60
59075;DHT22;44860;53.020;6.738;2023-04-06T12:08:46;12.80;46.80
59075;DHT22;44860;53.020;6.738;2023-04-06T12:11:12;12.80;46.90
59075;DHT22;44860;53.020;6.738;2023-04-06T12:13:37;12.80;47.20
59075;DHT22;44860;53.020;6.738;2023-04-06T12:16:03;12.80;46.70
59075;DHT22;44860;53.020;6.738;2023-04-06T12:18:30;12.80;46.30
59075;DHT22;44860;53.020;6.738;2023-04-06T12:20:55;12.80;45.70
59075;DHT22;44860;53.020;6.738;2023-04-06T12:23:21;12.80;45.70
59075;DHT22;44860;53.020;6.738;2023-04-06T12:25:47;12.80;45.90
59075;DHT22;44860;53.020;6.738;2023-04-06T12:28:12;12.90;45.90
59075;DHT22;44860;53.020;6.738;2023-04-06T12:30:38;12.90;44.80
59075;DHT22;44860;53.020;6.738;2023-04-06T12:33:06;12.80;45.20
59075;DHT22;44860;53.020;6.738;2023-04-06T12:35:36;12.80;46.10
59075;DHT22;44860;53.020;6.738;2023-04-06T12:38:02;12.90;45.80
59075;DHT22;44860;53.020;6.738;2023-04-06T12:40:27;12.90;44.70
59075;DHT22;44860;53.020;6.738;2023-04-06T12:42:53;12.90;45.30
59075;DHT22;44860;53.020;6.738;2023-04-06T12:45:19;12.90;44.50
59075;DHT22;44860;53.020;6.738;2023-04-06T12:47:44;13.00;41.20
59075;DHT22;44860;53.020;6.738;2023-04-06T12:50:10;12.80;41.50
59075;DHT22;44860;53.020;6.738;2023-04-06T12:52:36;12.80;43.20
59075;DHT22;44860;53.020;6.738;2023-04-06T12:55:03;12.80;43.80
59075;DHT22;44860;53.020;6.738;2023-04-06T12:57:30;12.90;42.60
59075;DHT22;44860;53.020;6.738;2023-04-06T12:59:57;12.90;41.50
59075;DHT22;44860;53.020;6.738;2023-04-06T13:02:23;12.80;41.00
59075;DHT22;44860;53.020;6.738;2023-04-06T13:04:49;12.80;41.40
59075;DHT22;44860;53.020;6.738;2023-04-06T13:07:16;12.80;41.80
59075;DHT22;44860;53.020;6.738;2023-04-06T13:09:42;12.80;43.10
59075;DHT22;44860;53.020;6.738;2023-04-06T13:12:07;12.80;41.90
59075;DHT22;44860;53.020;6.738;2023-04-06T13:14:33;12.80;42.30
59075;DHT22;44860;53.020;6.738;2023-04-06T13:16:59;12.80;42.60
59075;DHT22;44860;53.020;6.738;2023-04-06T13:19:25;12.80;42.60
59075;DHT22;44860;53.020;6.738;2023-04-06T13:21:52;12.80;43.80
59075;DHT22;44860;53.020;6.738;2023-04-06T13:24:20;12.80;43.40
59075;DHT22;44860;53.020;6.738;2023-04-06T13:26:47;12.80;43.70
59075;DHT22;44860;53.020;6.738;2023-04-06T13:29:12;12.80;43.40
59075;DHT22;44860;53.020;6.738;2023-04-06T13:31:38;12.80;42.70
59075;DHT22;44860;53.020;6.738;2023-04-06T13:34:04;12.80;43.40
59075;DHT22;44860;53.020;6.738;2023-04-06T13:36:30;12.90;43.80
59075;DHT22;44860;53.020;6.738;2023-04-06T13:38:57;12.90;42.50
59075;DHT22;44860;53.020;6.738;2023-04-06T13:41:24;12.90;42.80
59075;DHT22;44860;53.020;6.738;2023-04-06T13:43:52;12.90;42.60
59075;DHT22;44860;53.020;6.738;2023-04-06T13:46:17;12.90;42.60
59075;DHT22;44860;53.020;6.738;2023-04-06T13:48:43;12.90;43.20
59075;DHT22;44860;53.020;6.738;2023-04-06T13:51:13;12.90;42.70
59075;DHT22;44860;53.020;6.738;2023-04-06T13:53:40;12.90;42.20
59075;DHT22;44860;53.020;6.738;2023-04-06T13:56:07;12.90;41.60
59075;DHT22;44860;53.020;6.738;2023-04-06T13:58:33;12.90;40.50
59075;DHT22;44860;53.020;6.738;2023-04-06T14:01:08;12.90;40.40
59075;DHT22;44860;53.020;6.738;2023-04-06T14:03:38;12.90;40.10
59075;DHT22;44860;53.020;6.738;2023-04-06T14:06:12;12.90;41.00
59075;DHT22;44860;53.020;6.738;2023-04-06T14:08:38;12.90;41.10
59075;DHT22;44860;53.020;6.738;2023-04-06T14:11:03;12.80;41.80
59075;DHT22;44860;53.020;6.738;2023-04-06T14:13:29;12.80;42.10
59075;DHT22;44860;53.020;6.738;2023-04-06T14:15:55;12.80;42.70
59075;DHT22;44860;53.020;6.738;2023-04-06T14:18:22;12.80;42.00
59075;DHT22;44860;53.020;6.738;2023-04-06T14:20:57;12.80;41.70
59075;DHT22;44860;53.020;6.738;2023-04-06T14:23:24;12.80;41.40
59075;DHT22;44860;53.020;6.738;2023-04-06T14:26:01;12.70;40.50
59075;DHT22;44860;53.020;6.738;2023-04-06T14:28:29;12.70;39.50
59075;DHT22;44860;53.020;6.738;2023-04-06T14:30:54;12.60;40.20
59075;DHT22;44860;53.020;6.738;2023-04-06T14:33:20;12.50;40.30
59075;DHT22;44860;53.020;6.738;2023-04-06T14:35:46;12.40;41.10
59075;DHT22;44860;53.020;6.738;2023-04-06T14:38:11;12.30;41.80
59075;DHT22;44860;53.020;6.738;2023-04-06T14:40:37;12.30;42.50
59075;DHT22;44860;53.020;6.738;2023-04-06T14:43:03;12.30;43.30
59075;DHT22;44860;53.020;6.738;2023-04-06T14:45:29;12.30;43.20
59075;DHT22;44860;53.020;6.738;2023-04-06T14:47:55;12.30;43.70
59075;DHT22;44860;53.020;6.738;2023-04-06T14:50:21;12.20;44.30
59075;DHT22;44860;53.020;6.738;2023-04-06T14:52:46;12.20;45.30
59075;DHT22;44860;53.020;6.738;2023-04-06T14:55:12;12.20;44.00
59075;DHT22;44860;53.020;6.738;2023-04-06T14:57:39;12.20;44.50
59075;DHT22;44860;53.020;6.738;2023-04-06T15:00:05;12.10;45.00
59075;DHT22;44860;53.020;6.738;2023-04-06T15:02:33;12.10;45.60
59075;DHT22;44860;53.020;6.738;2023-04-06T15:04:59;12.10;46.20
59075;DHT22;44860;53.020;6.738;2023-04-06T15:07:24;12.10;47.10
59075;DHT22;44860;53.020;6.738;2023-04-06T15:09:50;12.00;47.90
59075;DHT22;44860;53.020;6.738;2023-04-06T15:12:16;12.00;48.60
59075;DHT22;44860;53.020;6.738;2023-04-06T15:14:42;11.90;50.10
59075;DHT22;44860;53.020;6.738;2023-04-06T15:17:07;11.80;51.20
59075;DHT22;44860;53.020;6.738;2023-04-06T15:19:33;11.70;51.80
59075;DHT22;44860;53.020;6.738;2023-04-06T15:21:59;11.70;52.40
59075;DHT22;44860;53.020;6.738;2023-04-06T15:24:24;11.60;53.10
59075;DHT22;44860;53.020;6.738;2023-04-06T15:26:50;11.50;53.30
59075;DHT22;44860;53.020;6.738;2023-04-06T15:29:16;11.50;55.90
59075;DHT22;44860;53.020;6.738;2023-04-06T15:31:42;11.40;55.70
59075;DHT22;44860;53.020;6.738;2023-04-06T15:34:07;11.40;55.70
59075;DHT22;44860;53.020;6.738;2023-04-06T15:36:33;11.30;54.70
59075;DHT22;44860;53.020;6.738;2023-04-06T15:38:59;11.30;54.70
59075;DHT22;44860;53.020;6.738;2023-04-06T15:41:26;11.30;54.60
59075;DHT22;44860;53.020;6.738;2023-04-06T15:43:53;11.20;54.70
59075;DHT22;44860;53.020;6.738;2023-04-06T15:46:19;11.20;54.50